sensor_id;sensor_type;location;lat;lon;timestamp;P1;P2;P0
80643;PMS5003;70010;60.224;24.712;2024-02-21T00:00:49;11;8;
80643;PMS5003;70010;60.224;24.712;2024-02-21T00:03:14;14;14;
80643;PMS5003;70010;60.224;24.712;2024-02-21T00:05:40;15;8;
80643;PMS5003;70010;60.224;24.712;2024-02-21T00:08:05;11;11;
80643;PMS5003;70010;60.224;24.712;2024-02-21T00:10:30;11;9;
80643;PMS5003;70010;60.224;24.712;2024-02-21T00:12:55;20;13;
80643;PMS5003;70010;60.224;24.712;2024-02-21T00:15:21;10;9;
80643;PMS5003;70010;60.224;24.712;2024-02-21T00:17:46;10;7;
80643;PMS5003;70010;60.224;24.712;2024-02-21T00:20:11;14;10;
80643;PMS5003;70010;60.224;24.712;2024-02-21T00:22:37;10;9;
80643;PMS5003;70010;60.224;24.712;2024-02-21T00:25:02;15;12;
80643;PMS5003;70010;60.224;24.712;2024-02-21T00:27:27;11;10;
80643;PMS5003;70010;60.224;24.712;2024-02-21T00:29:53;13;10;
80643;PMS5003;70010;60.224;24.712;2024-02-21T00:32:18;14;9;
80643;PMS5003;70010;60.224;24.712;2024-02-21T00:34:43;10;7;
80643;PMS5003;70010;60.224;24.712;2024-02-21T00:37:08;10;8;
80643;PMS5003;70010;60.224;24.712;2024-02-21T00:39:34;10;9;
80643;PMS5003;70010;60.224;24.712;2024-02-21T00:41:59;8;8;
80643;PMS5003;70010;60.224;24.712;2024-02-21T00:44:24;6;6;
80643;PMS5003;70010;60.224;24.712;2024-02-21T00:46:50;8;8;
80643;PMS5003;70010;60.224;24.712;2024-02-21T00:49:15;9;8;
80643;PMS5003;70010;60.224;24.712;2024-02-21T00:51:40;17;8;
80643;PMS5003;70010;60.224;24.712;2024-02-21T00:54:05;15;8;
80643;PMS5003;70010;60.224;24.712;2024-02-21T00:56:31;10;8;
80643;PMS5003;70010;60.224;24.712;2024-02-21T00:58:56;13;9;
80643;PMS5003;70010;60.224;24.712;2024-02-21T01:01:22;8;8;
80643;PMS5003;70010;60.224;24.712;2024-02-21T01:03:47;13;8;
80643;PMS5003;70010;60.224;24.712;2024-02-21T01:06:13;10;8;
80643;PMS5003;70010;60.224;24.712;2024-02-21T01:08:38;10;7;
80643;PMS5003;70010;60.224;24.712;2024-02-21T01:11:03;20;11;
80643;PMS5003;70010;60.224;24.712;2024-02-21T01:13:28;12;12;
80643;PMS5003;70010;60.224;24.712;2024-02-21T01:15:53;13;7;
80643;PMS5003;70010;60.224;24.712;2024-02-21T01:18:19;14;10;
80643;PMS5003;70010;60.224;24.712;2024-02-21T01:20:44;21;13;
80643;PMS5003;70010;60.224;24.712;2024-02-21T01:23:10;11;8;
80643;PMS5003;70010;60.224;24.712;2024-02-21T01:25:35;11;9;
80643;PMS5003;70010;60.224;24.712;2024-02-21T01:28:01;10;10;
80643;PMS5003;70010;60.224;24.712;2024-02-21T01:30:26;11;11;
80643;PMS5003;70010;60.224;24.712;2024-02-21T01:32:51;21;9;
80643;PMS5003;70010;60.224;24.712;2024-02-21T01:35:16;12;10;
80643;PMS5003;70010;60.224;24.712;2024-02-21T01:37:42;8;8;
80643;PMS5003;70010;60.224;24.712;2024-02-21T01:40:08;10;10;
80643;PMS5003;70010;60.224;24.712;2024-02-21T01:42:33;9;8;
80643;PMS5003;70010;60.224;24.712;2024-02-21T01:44:58;9;8;
80643;PMS5003;70010;60.224;24.712;2024-02-21T01:47:23;11;9;
80643;PMS5003;70010;60.224;24.712;2024-02-21T01:49:49;15;12;
80643;PMS5003;70010;60.224;24.712;2024-02-21T01:52:14;11;10;
80643;PMS5003;70010;60.224;24.712;2024-02-21T01:54:39;9;9;
80643;PMS5003;70010;60.224;24.712;2024-02-21T01:57:05;14;9;
80643;PMS5003;70010;60.224;24.712;2024-02-21T01:59:31;11;8;
80643;PMS5003;70010;60.224;24.712;2024-02-21T02:01:56;15;12;
80643;PMS5003;70010;60.224;24.712;2024-02-21T02:04:21;15;9;
80643;PMS5003;70010;60.224;24.712;2024-02-21T02:06:47;12;8;
80643;PMS5003;70010;60.224;24.712;2024-02-21T02:09:12;9;9;
80643;PMS5003;70010;60.224;24.712;2024-02-21T02:11:37;8;7;
80643;PMS5003;70010;60.224;24.712;2024-02-21T02:14:02;12;9;
80643;PMS5003;70010;60.224;24.712;2024-02-21T02:16:28;9;9;
80643;PMS5003;70010;60.224;24.712;2024-02-21T02:18:53;10;9;
80643;PMS5003;70010;60.224;24.712;2024-02-21T02:21:22;8;7;
80643;PMS5003;70010;60.224;24.712;2024-02-21T02:23:44;8;8;
80643;PMS5003;70010;60.224;24.712;2024-02-21T02:26:09;13;11;
80643;PMS5003;70010;60.224;24.712;2024-02-21T02:28:35;9;9;
80643;PMS5003;70010;60.224;24.712;2024-02-21T02:31:00;10;8;
80643;PMS5003;70010;60.224;24.712;2024-02-21T02:33:25;10;10;
80643;PMS5003;70010;60.224;24.712;2024-02-21T02:35:50;17;11;
80643;PMS5003;70010;60.224;24.712;2024-02-21T02:38:16;8;8;
80643;PMS5003;70010;60.224;24.712;2024-02-21T02:40:41;9;9;
80643;PMS5003;70010;60.224;24.712;2024-02-21T02:43:06;9;7;
80643;PMS5003;70010;60.224;24.712;2024-02-21T02:45:31;10;9;
80643;PMS5003;70010;60.224;24.712;2024-02-21T02:47:57;9;9;
80643;PMS5003;70010;60.224;24.712;2024-02-21T02:50:22;16;8;
80643;PMS5003;70010;60.224;24.712;2024-02-21T02:52:48;21;11;
80643;PMS5003;70010;60.224;24.712;2024-02-21T02:55:13;9;7;
80643;PMS5003;70010;60.224;24.712;2024-02-21T02:57:38;13;12;
80643;PMS5003;70010;60.224;24.712;2024-02-21T03:00:04;10;9;
80643;PMS5003;70010;60.224;24.712;2024-02-21T03:02:29;12;10;
80643;PMS5003;70010;60.224;24.712;2024-02-21T03:04:54;8;7;
80643;PMS5003;70010;60.224;24.712;2024-02-21T03:07:19;11;9;
80643;PMS5003;70010;60.224;24.712;2024-02-21T03:09:45;14;11;
80643;PMS5003;70010;60.224;24.712;2024-02-21T03:12:10;13;9;
80643;PMS5003;70010;60.224;24.712;2024-02-21T03:14:35;12;8;
80643;PMS5003;70010;60.224;24.712;2024-02-21T03:17:01;11;11;
80643;PMS5003;70010;60.224;24.712;2024-02-21T03:19:26;11;8;
80643;PMS5003;70010;60.224;24.712;2024-02-21T03:21:51;12;11;
80643;PMS5003;70010;60.224;24.712;2024-02-21T03:24:18;13;13;
80643;PMS5003;70010;60.224;24.712;2024-02-21T03:26:42;9;8;
80643;PMS5003;70010;60.224;24.712;2024-02-21T03:29:08;11;9;
80643;PMS5003;70010;60.224;24.712;2024-02-21T03:31:33;17;12;
80643;PMS5003;70010;60.224;24.712;2024-02-21T03:33:58;14;13;
80643;PMS5003;70010;60.224;24.712;2024-02-21T03:36:23;14;13;
80643;PMS5003;70010;60.224;24.712;2024-02-21T03:38:48;10;10;
80643;PMS5003;70010;60.224;24.712;2024-02-21T03:41:14;16;13;
80643;PMS5003;70010;60.224;24.712;2024-02-21T03:43:39;12;10;
80643;PMS5003;70010;60.224;24.712;2024-02-21T03:46:04;12;12;
80643;PMS5003;70010;60.224;24.712;2024-02-21T03:48:29;16;12;
80643;PMS5003;70010;60.224;24.712;2024-02-21T03:50:54;13;12;
80643;PMS5003;70010;60.224;24.712;2024-02-21T03:53:20;13;12;
80643;PMS5003;70010;60.224;24.712;2024-02-21T03:55:45;17;14;
80643;PMS5003;70010;60.224;24.712;2024-02-21T03:58:10;14;12;
80643;PMS5003;70010;60.224;24.712;2024-02-21T04:00:35;16;12;
80643;PMS5003;70010;60.224;24.712;2024-02-21T04:03:00;24;17;
80643;PMS5003;70010;60.224;24.712;2024-02-21T04:05:26;16;13;
80643;PMS5003;70010;60.224;24.712;2024-02-21T04:07:51;17;14;
80643;PMS5003;70010;60.224;24.712;2024-02-21T04:10:16;17;15;
80643;PMS5003;70010;60.224;24.712;2024-02-21T04:12:42;27;14;
80643;PMS5003;70010;60.224;24.712;2024-02-21T04:15:07;18;15;
80643;PMS5003;70010;60.224;24.712;2024-02-21T04:17:32;18;12;
80643;PMS5003;70010;60.224;24.712;2024-02-21T04:20:02;22;14;
80643;PMS5003;70010;60.224;24.712;2024-02-21T04:22:24;12;12;
80643;PMS5003;70010;60.224;24.712;2024-02-21T04:24:49;18;15;
80643;PMS5003;70010;60.224;24.712;2024-02-21T04:27:15;17;13;
80643;PMS5003;70010;60.224;24.712;2024-02-21T04:29:40;15;15;
80643;PMS5003;70010;60.224;24.712;2024-02-21T04:32:06;18;14;
80643;PMS5003;70010;60.224;24.712;2024-02-21T04:34:31;12;12;
80643;PMS5003;70010;60.224;24.712;2024-02-21T04:36:57;16;12;
80643;PMS5003;70010;60.224;24.712;2024-02-21T04:39:22;16;15;
80643;PMS5003;70010;60.224;24.712;2024-02-21T04:41:47;22;16;
80643;PMS5003;70010;60.224;24.712;2024-02-21T04:44:13;26;16;
80643;PMS5003;70010;60.224;24.712;2024-02-21T04:46:38;18;16;
80643;PMS5003;70010;60.224;24.712;2024-02-21T04:49:04;18;15;
80643;PMS5003;70010;60.224;24.712;2024-02-21T04:51:29;21;17;
80643;PMS5003;70010;60.224;24.712;2024-02-21T04:53:54;17;15;
80643;PMS5003;70010;60.224;24.712;2024-02-21T04:56:19;22;14;
80643;PMS5003;70010;60.224;24.712;2024-02-21T04:58:45;17;13;
80643;PMS5003;70010;60.224;24.712;2024-02-21T05:01:10;14;13;
80643;PMS5003;70010;60.224;24.712;2024-02-21T05:03:36;24;15;
80643;PMS5003;70010;60.224;24.712;2024-02-21T05:06:01;18;17;
80643;PMS5003;70010;60.224;24.712;2024-02-21T05:08:27;14;13;
80643;PMS5003;70010;60.224;24.712;2024-02-21T05:10:52;25;16;
80643;PMS5003;70010;60.224;24.712;2024-02-21T05:13:17;13;13;
80643;PMS5003;70010;60.224;24.712;2024-02-21T05:15:43;18;14;
80643;PMS5003;70010;60.224;24.712;2024-02-21T05:18:09;19;17;
80643;PMS5003;70010;60.224;24.712;2024-02-21T05:20:34;23;16;
80643;PMS5003;70010;60.224;24.712;2024-02-21T05:22:59;23;17;
80643;PMS5003;70010;60.224;24.712;2024-02-21T05:25:24;19;19;
80643;PMS5003;70010;60.224;24.712;2024-02-21T05:27:50;22;14;
80643;PMS5003;70010;60.224;24.712;2024-02-21T05:30:15;21;16;
80643;PMS5003;70010;60.224;24.712;2024-02-21T05:32:40;22;16;
80643;PMS5003;70010;60.224;24.712;2024-02-21T05:35:06;15;15;
80643;PMS5003;70010;60.224;24.712;2024-02-21T05:37:30;20;16;
80643;PMS5003;70010;60.224;24.712;2024-02-21T05:39:56;21;16;
80643;PMS5003;70010;60.224;24.712;2024-02-21T05:42:22;27;20;
80643;PMS5003;70010;60.224;24.712;2024-02-21T05:44:47;22;17;
80643;PMS5003;70010;60.224;24.712;2024-02-21T05:47:12;33;21;
80643;PMS5003;70010;60.224;24.712;2024-02-21T05:49:38;17;17;
80643;PMS5003;70010;60.224;24.712;2024-02-21T05:52:03;35;22;
80643;PMS5003;70010;60.224;24.712;2024-02-21T05:54:28;25;17;
80643;PMS5003;70010;60.224;24.712;2024-02-21T05:56:54;28;16;
80643;PMS5003;70010;60.224;24.712;2024-02-21T05:59:19;25;19;
80643;PMS5003;70010;60.224;24.712;2024-02-21T06:01:44;24;20;
80643;PMS5003;70010;60.224;24.712;2024-02-21T06:04:09;32;17;
80643;PMS5003;70010;60.224;24.712;2024-02-21T06:06:34;26;17;
80643;PMS5003;70010;60.224;24.712;2024-02-21T06:09:00;22;17;
80643;PMS5003;70010;60.224;24.712;2024-02-21T06:11:25;29;18;
80643;PMS5003;70010;60.224;24.712;2024-02-21T06:13:50;23;19;
80643;PMS5003;70010;60.224;24.712;2024-02-21T06:16:16;21;19;
80643;PMS5003;70010;60.224;24.712;2024-02-21T06:18:41;29;21;
80643;PMS5003;70010;60.224;24.712;2024-02-21T06:21:07;24;18;
80643;PMS5003;70010;60.224;24.712;2024-02-21T06:23:32;23;21;
80643;PMS5003;70010;60.224;24.712;2024-02-21T06:25:58;20;19;
80643;PMS5003;70010;60.224;24.712;2024-02-21T06:28:23;27;23;
80643;PMS5003;70010;60.224;24.712;2024-02-21T06:30:49;25;18;
80643;PMS5003;70010;60.224;24.712;2024-02-21T06:33:14;23;20;
80643;PMS5003;70010;60.224;24.712;2024-02-21T06:35:39;16;16;
80643;PMS5003;70010;60.224;24.712;2024-02-21T06:38:05;31;21;
80643;PMS5003;70010;60.224;24.712;2024-02-21T06:40:30;22;20;
80643;PMS5003;70010;60.224;24.712;2024-02-21T06:42:56;29;19;
80643;PMS5003;70010;60.224;24.712;2024-02-21T06:45:22;33;24;
80643;PMS5003;70010;60.224;24.712;2024-02-21T06:47:47;34;22;
80643;PMS5003;70010;60.224;24.712;2024-02-21T06:50:13;34;24;
80643;PMS5003;70010;60.224;24.712;2024-02-21T06:52:38;32;26;
80643;PMS5003;70010;60.224;24.712;2024-02-21T06:55:04;28;23;
80643;PMS5003;70010;60.224;24.712;2024-02-21T06:57:29;25;24;
80643;PMS5003;70010;60.224;24.712;2024-02-21T06:59:55;31;22;
80643;PMS5003;70010;60.224;24.712;2024-02-21T07:02:20;25;18;
80643;PMS5003;70010;60.224;24.712;2024-02-21T07:04:45;28;23;
80643;PMS5003;70010;60.224;24.712;2024-02-21T07:07:11;29;25;
80643;PMS5003;70010;60.224;24.712;2024-02-21T07:09:36;22;19;
80643;PMS5003;70010;60.224;24.712;2024-02-21T07:12:02;24;22;
80643;PMS5003;70010;60.224;24.712;2024-02-21T07:14:27;30;24;
80643;PMS5003;70010;60.224;24.712;2024-02-21T07:16:53;21;19;
80643;PMS5003;70010;60.224;24.712;2024-02-21T07:19:19;34;24;
80643;PMS5003;70010;60.224;24.712;2024-02-21T07:21:44;27;20;
80643;PMS5003;70010;60.224;24.712;2024-02-21T07:24:10;25;22;
80643;PMS5003;70010;60.224;24.712;2024-02-21T07:26:36;22;19;
80643;PMS5003;70010;60.224;24.712;2024-02-21T07:29:01;23;19;
80643;PMS5003;70010;60.224;24.712;2024-02-21T07:31:26;37;24;
80643;PMS5003;70010;60.224;24.712;2024-02-21T07:33:51;28;21;
80643;PMS5003;70010;60.224;24.712;2024-02-21T07:36:28;26;22;
80643;PMS5003;70010;60.224;24.712;2024-02-21T07:38:42;20;20;
80643;PMS5003;70010;60.224;24.712;2024-02-21T07:41:08;28;19;
80643;PMS5003;70010;60.224;24.712;2024-02-21T07:43:34;36;24;
80643;PMS5003;70010;60.224;24.712;2024-02-21T07:46:00;23;21;
80643;PMS5003;70010;60.224;24.712;2024-02-21T07:48:25;27;18;
80643;PMS5003;70010;60.224;24.712;2024-02-21T07:50:51;24;21;
80643;PMS5003;70010;60.224;24.712;2024-02-21T07:53:16;25;23;
80643;PMS5003;70010;60.224;24.712;2024-02-21T07:55:42;33;21;
80643;PMS5003;70010;60.224;24.712;2024-02-21T07:58:07;34;23;
80643;PMS5003;70010;60.224;24.712;2024-02-21T08:00:33;28;23;
80643;PMS5003;70010;60.224;24.712;2024-02-21T08:02:58;29;25;
80643;PMS5003;70010;60.224;24.712;2024-02-21T08:05:23;36;25;
80643;PMS5003;70010;60.224;24.712;2024-02-21T08:07:48;29;27;
80643;PMS5003;70010;60.224;24.712;2024-02-21T08:10:14;26;21;
80643;PMS5003;70010;60.224;24.712;2024-02-21T08:12:41;34;21;
80643;PMS5003;70010;60.224;24.712;2024-02-21T08:15:06;27;23;
80643;PMS5003;70010;60.224;24.712;2024-02-21T08:17:32;27;20;
80643;PMS5003;70010;60.224;24.712;2024-02-21T08:19:57;32;27;
80643;PMS5003;70010;60.224;24.712;2024-02-21T08:22:23;25;23;
80643;PMS5003;70010;60.224;24.712;2024-02-21T08:24:48;37;29;
80643;PMS5003;70010;60.224;24.712;2024-02-21T08:27:14;28;22;
80643;PMS5003;70010;60.224;24.712;2024-02-21T08:29:39;28;23;
80643;PMS5003;70010;60.224;24.712;2024-02-21T08:32:05;29;26;
80643;PMS5003;70010;60.224;24.712;2024-02-21T08:34:30;33;25;
80643;PMS5003;70010;60.224;24.712;2024-02-21T08:36:55;31;19;
80643;PMS5003;70010;60.224;24.712;2024-02-21T08:39:21;23;19;
80643;PMS5003;70010;60.224;24.712;2024-02-21T08:41:46;34;28;
80643;PMS5003;70010;60.224;24.712;2024-02-21T08:44:12;38;23;
80643;PMS5003;70010;60.224;24.712;2024-02-21T08:46:37;30;22;
80643;PMS5003;70010;60.224;24.712;2024-02-21T08:49:03;26;21;
80643;PMS5003;70010;60.224;24.712;2024-02-21T08:51:28;26;21;
80643;PMS5003;70010;60.224;24.712;2024-02-21T08:53:53;33;22;
80643;PMS5003;70010;60.224;24.712;2024-02-21T08:56:19;30;24;
80643;PMS5003;70010;60.224;24.712;2024-02-21T08:58:44;34;23;
80643;PMS5003;70010;60.224;24.712;2024-02-21T09:01:10;18;17;
80643;PMS5003;70010;60.224;24.712;2024-02-21T09:03:35;26;22;
80643;PMS5003;70010;60.224;24.712;2024-02-21T09:06:00;27;20;
80643;PMS5003;70010;60.224;24.712;2024-02-21T09:08:26;22;19;
80643;PMS5003;70010;60.224;24.712;2024-02-21T09:10:52;25;22;
80643;PMS5003;70010;60.224;24.712;2024-02-21T09:13:17;30;20;
80643;PMS5003;70010;60.224;24.712;2024-02-21T09:15:42;31;23;
80643;PMS5003;70010;60.224;24.712;2024-02-21T09:18:07;22;17;
80643;PMS5003;70010;60.224;24.712;2024-02-21T09:20:33;23;21;
80643;PMS5003;70010;60.224;24.712;2024-02-21T09:22:58;28;21;
80643;PMS5003;70010;60.224;24.712;2024-02-21T09:25:24;32;19;
80643;PMS5003;70010;60.224;24.712;2024-02-21T09:27:49;24;20;
80643;PMS5003;70010;60.224;24.712;2024-02-21T09:30:14;26;15;
80643;PMS5003;70010;60.224;24.712;2024-02-21T09:32:40;28;21;
80643;PMS5003;70010;60.224;24.712;2024-02-21T09:35:05;22;18;
80643;PMS5003;70010;60.224;24.712;2024-02-21T09:37:30;23;16;
80643;PMS5003;70010;60.224;24.712;2024-02-21T09:39:55;32;22;
80643;PMS5003;70010;60.224;24.712;2024-02-21T09:42:20;20;17;
80643;PMS5003;70010;60.224;24.712;2024-02-21T09:44:45;25;16;
80643;PMS5003;70010;60.224;24.712;2024-02-21T09:47:12;19;15;
80643;PMS5003;70010;60.224;24.712;2024-02-21T09:49:36;21;19;
80643;PMS5003;70010;60.224;24.712;2024-02-21T09:52:02;33;18;
80643;PMS5003;70010;60.224;24.712;2024-02-21T09:54:28;22;16;
80643;PMS5003;70010;60.224;24.712;2024-02-21T09:56:53;20;18;
80643;PMS5003;70010;60.224;24.712;2024-02-21T09:59:19;24;17;
80643;PMS5003;70010;60.224;24.712;2024-02-21T10:01:44;19;17;
80643;PMS5003;70010;60.224;24.712;2024-02-21T10:04:10;26;17;
80643;PMS5003;70010;60.224;24.712;2024-02-21T10:06:35;23;20;
80643;PMS5003;70010;60.224;24.712;2024-02-21T10:09:00;26;17;
80643;PMS5003;70010;60.224;24.712;2024-02-21T10:11:26;27;20;
80643;PMS5003;70010;60.224;24.712;2024-02-21T10:16:17;19;17;
80643;PMS5003;70010;60.224;24.712;2024-02-21T10:18:43;19;17;
80643;PMS5003;70010;60.224;24.712;2024-02-21T10:21:08;19;16;
80643;PMS5003;70010;60.224;24.712;2024-02-21T10:28:25;23;18;
80643;PMS5003;70010;60.224;24.712;2024-02-21T10:30:50;20;18;
80643;PMS5003;70010;60.224;24.712;2024-02-21T10:33:15;26;19;
80643;PMS5003;70010;60.224;24.712;2024-02-21T10:35:41;25;17;
80643;PMS5003;70010;60.224;24.712;2024-02-21T10:38:07;22;17;
80643;PMS5003;70010;60.224;24.712;2024-02-21T10:40:32;31;20;
80643;PMS5003;70010;60.224;24.712;2024-02-21T10:42:57;19;19;
80643;PMS5003;70010;60.224;24.712;2024-02-21T10:45:22;26;18;
80643;PMS5003;70010;60.224;24.712;2024-02-21T10:47:48;16;16;
80643;PMS5003;70010;60.224;24.712;2024-02-21T10:50:13;26;20;
80643;PMS5003;70010;60.224;24.712;2024-02-21T10:52:49;23;20;
80643;PMS5003;70010;60.224;24.712;2024-02-21T10:55:07;21;18;
80643;PMS5003;70010;60.224;24.712;2024-02-21T10:57:29;23;19;
80643;PMS5003;70010;60.224;24.712;2024-02-21T10:59:55;17;17;
80643;PMS5003;70010;60.224;24.712;2024-02-21T11:02:20;21;18;
80643;PMS5003;70010;60.224;24.712;2024-02-21T11:04:45;16;16;
80643;PMS5003;70010;60.224;24.712;2024-02-21T11:07:10;29;19;
80643;PMS5003;70010;60.224;24.712;2024-02-21T11:09:36;18;18;
80643;PMS5003;70010;60.224;24.712;2024-02-21T11:12:02;20;18;
80643;PMS5003;70010;60.224;24.712;2024-02-21T11:14:27;21;18;
80643;PMS5003;70010;60.224;24.712;2024-02-21T11:16:53;23;17;
80643;PMS5003;70010;60.224;24.712;2024-02-21T11:19:20;21;16;
80643;PMS5003;70010;60.224;24.712;2024-02-21T11:21:43;23;19;
80643;PMS5003;70010;60.224;24.712;2024-02-21T11:24:09;32;21;
80643;PMS5003;70010;60.224;24.712;2024-02-21T11:26:36;21;17;
80643;PMS5003;70010;60.224;24.712;2024-02-21T11:28:59;31;21;
80643;PMS5003;70010;60.224;24.712;2024-02-21T11:31:25;25;19;
80643;PMS5003;70010;60.224;24.712;2024-02-21T11:33:50;29;20;
80643;PMS5003;70010;60.224;24.712;2024-02-21T11:38:42;20;18;
80643;PMS5003;70010;60.224;24.712;2024-02-21T11:41:08;20;19;
80643;PMS5003;70010;60.224;24.712;2024-02-21T11:43:33;24;22;
80643;PMS5003;70010;60.224;24.712;2024-02-21T11:45:58;21;19;
80643;PMS5003;70010;60.224;24.712;2024-02-21T11:48:23;22;19;
80643;PMS5003;70010;60.224;24.712;2024-02-21T11:53:13;28;25;
80643;PMS5003;70010;60.224;24.712;2024-02-21T11:55:39;25;21;
80643;PMS5003;70010;60.224;24.712;2024-02-21T11:58:04;28;21;
80643;PMS5003;70010;60.224;24.712;2024-02-21T12:00:30;26;19;
80643;PMS5003;70010;60.224;24.712;2024-02-21T12:02:55;29;20;
80643;PMS5003;70010;60.224;24.712;2024-02-21T12:05:21;16;16;
80643;PMS5003;70010;60.224;24.712;2024-02-21T12:07:46;30;20;
80643;PMS5003;70010;60.224;24.712;2024-02-21T12:10:11;29;20;
80643;PMS5003;70010;60.224;24.712;2024-02-21T12:12:37;28;20;
80643;PMS5003;70010;60.224;24.712;2024-02-21T12:15:03;24;20;
80643;PMS5003;70010;60.224;24.712;2024-02-21T12:17:28;22;19;
80643;PMS5003;70010;60.224;24.712;2024-02-21T12:19:53;17;17;
80643;PMS5003;70010;60.224;24.712;2024-02-21T12:22:19;32;20;
80643;PMS5003;70010;60.224;24.712;2024-02-21T12:24:44;31;28;
80643;PMS5003;70010;60.224;24.712;2024-02-21T12:27:09;26;22;
80643;PMS5003;70010;60.224;24.712;2024-02-21T12:29:35;30;22;
80643;PMS5003;70010;60.224;24.712;2024-02-21T12:32:00;34;27;
80643;PMS5003;70010;60.224;24.712;2024-02-21T12:34:25;40;21;
80643;PMS5003;70010;60.224;24.712;2024-02-21T12:36:51;29;20;
80643;PMS5003;70010;60.224;24.712;2024-02-21T12:39:17;33;22;
80643;PMS5003;70010;60.224;24.712;2024-02-21T12:41:42;23;22;
80643;PMS5003;70010;60.224;24.712;2024-02-21T12:44:07;31;26;
80643;PMS5003;70010;60.224;24.712;2024-02-21T12:46:33;30;26;
80643;PMS5003;70010;60.224;24.712;2024-02-21T12:48:58;16;16;
80643;PMS5003;70010;60.224;24.712;2024-02-21T12:51:24;24;17;
80643;PMS5003;70010;60.224;24.712;2024-02-21T12:53:49;30;25;
80643;PMS5003;70010;60.224;24.712;2024-02-21T12:56:14;27;18;
80643;PMS5003;70010;60.224;24.712;2024-02-21T12:58:39;33;26;
80643;PMS5003;70010;60.224;24.712;2024-02-21T13:01:05;29;25;
80643;PMS5003;70010;60.224;24.712;2024-02-21T13:03:31;28;22;
80643;PMS5003;70010;60.224;24.712;2024-02-21T13:05:57;43;26;
80643;PMS5003;70010;60.224;24.712;2024-02-21T13:08:23;25;23;
80643;PMS5003;70010;60.224;24.712;2024-02-21T13:10:48;23;18;
80643;PMS5003;70010;60.224;24.712;2024-02-21T13:13:13;30;20;
80643;PMS5003;70010;60.224;24.712;2024-02-21T13:15:38;34;23;
80643;PMS5003;70010;60.224;24.712;2024-02-21T13:18:04;32;23;
80643;PMS5003;70010;60.224;24.712;2024-02-21T13:20:29;27;20;
80643;PMS5003;70010;60.224;24.712;2024-02-21T13:22:54;31;25;
80643;PMS5003;70010;60.224;24.712;2024-02-21T13:25:19;30;23;
80643;PMS5003;70010;60.224;24.712;2024-02-21T13:27:45;19;19;
80643;PMS5003;70010;60.224;24.712;2024-02-21T13:30:11;21;17;
80643;PMS5003;70010;60.224;24.712;2024-02-21T13:32:36;30;24;
80643;PMS5003;70010;60.224;24.712;2024-02-21T13:35:02;25;19;
80643;PMS5003;70010;60.224;24.712;2024-02-21T13:37:27;23;19;
80643;PMS5003;70010;60.224;24.712;2024-02-21T13:39:52;27;19;
80643;PMS5003;70010;60.224;24.712;2024-02-21T13:42:18;44;26;
80643;PMS5003;70010;60.224;24.712;2024-02-21T13:44:43;28;25;
80643;PMS5003;70010;60.224;24.712;2024-02-21T13:47:08;21;20;
80643;PMS5003;70010;60.224;24.712;2024-02-21T13:49:34;21;20;
80643;PMS5003;70010;60.224;24.712;2024-02-21T13:51:59;27;21;
80643;PMS5003;70010;60.224;24.712;2024-02-21T13:54:25;32;23;
80643;PMS5003;70010;60.224;24.712;2024-02-21T13:56:51;31;23;
80643;PMS5003;70010;60.224;24.712;2024-02-21T13:59:16;28;20;
80643;PMS5003;70010;60.224;24.712;2024-02-21T14:01:41;25;19;
80643;PMS5003;70010;60.224;24.712;2024-02-21T14:04:06;27;25;
80643;PMS5003;70010;60.224;24.712;2024-02-21T14:06:31;29;23;
80643;PMS5003;70010;60.224;24.712;2024-02-21T14:08:57;28;19;
80643;PMS5003;70010;60.224;24.712;2024-02-21T14:11:22;26;20;
80643;PMS5003;70010;60.224;24.712;2024-02-21T14:13:47;21;17;
80643;PMS5003;70010;60.224;24.712;2024-02-21T14:16:13;27;24;
80643;PMS5003;70010;60.224;24.712;2024-02-21T14:18:39;19;17;
80643;PMS5003;70010;60.224;24.712;2024-02-21T14:21:04;28;23;
80643;PMS5003;70010;60.224;24.712;2024-02-21T14:23:30;31;23;
80643;PMS5003;70010;60.224;24.712;2024-02-21T14:25:55;27;19;
80643;PMS5003;70010;60.224;24.712;2024-02-21T14:28:21;23;18;
80643;PMS5003;70010;60.224;24.712;2024-02-21T14:30:46;29;24;
80643;PMS5003;70010;60.224;24.712;2024-02-21T14:33:11;32;19;
80643;PMS5003;70010;60.224;24.712;2024-02-21T14:35:37;37;23;
80643;PMS5003;70010;60.224;24.712;2024-02-21T14:38:02;35;21;
80643;PMS5003;70010;60.224;24.712;2024-02-21T14:40:27;25;21;
80643;PMS5003;70010;60.224;24.712;2024-02-21T14:42:53;31;25;
80643;PMS5003;70010;60.224;24.712;2024-02-21T14:45:18;28;23;
80643;PMS5003;70010;60.224;24.712;2024-02-21T14:47:43;27;24;
80643;PMS5003;70010;60.224;24.712;2024-02-21T14:50:09;29;24;
80643;PMS5003;70010;60.224;24.712;2024-02-21T14:52:34;28;21;
80643;PMS5003;70010;60.224;24.712;2024-02-21T14:54:59;35;21;
80643;PMS5003;70010;60.224;24.712;2024-02-21T14:57:25;29;26;
80643;PMS5003;70010;60.224;24.712;2024-02-21T14:59:50;25;20;
80643;PMS5003;70010;60.224;24.712;2024-02-21T15:02:16;22;20;
80643;PMS5003;70010;60.224;24.712;2024-02-21T15:04:41;25;25;
80643;PMS5003;70010;60.224;24.712;2024-02-21T15:07:07;34;25;
80643;PMS5003;70010;60.224;24.712;2024-02-21T15:09:32;31;23;
80643;PMS5003;70010;60.224;24.712;2024-02-21T15:11:57;30;21;
80643;PMS5003;70010;60.224;24.712;2024-02-21T15:14:23;27;23;
80643;PMS5003;70010;60.224;24.712;2024-02-21T15:16:49;36;25;
80643;PMS5003;70010;60.224;24.712;2024-02-21T15:19:14;26;23;
80643;PMS5003;70010;60.224;24.712;2024-02-21T15:21:39;24;20;
80643;PMS5003;70010;60.224;24.712;2024-02-21T15:24:05;33;25;
80643;PMS5003;70010;60.224;24.712;2024-02-21T15:26:30;32;23;
80643;PMS5003;70010;60.224;24.712;2024-02-21T15:28:56;37;24;
80643;PMS5003;70010;60.224;24.712;2024-02-21T15:31:21;28;21;
80643;PMS5003;70010;60.224;24.712;2024-02-21T15:33:47;43;24;
80643;PMS5003;70010;60.224;24.712;2024-02-21T15:36:13;31;26;
80643;PMS5003;70010;60.224;24.712;2024-02-21T15:38:38;39;24;
80643;PMS5003;70010;60.224;24.712;2024-02-21T15:41:03;26;23;
80643;PMS5003;70010;60.224;24.712;2024-02-21T15:43:28;31;22;
80643;PMS5003;70010;60.224;24.712;2024-02-21T15:45:54;29;24;
80643;PMS5003;70010;60.224;24.712;2024-02-21T15:48:19;26;22;
80643;PMS5003;70010;60.224;24.712;2024-02-21T15:50:44;35;26;
80643;PMS5003;70010;60.224;24.712;2024-02-21T15:53:10;27;22;
80643;PMS5003;70010;60.224;24.712;2024-02-21T15:55:35;25;23;
80643;PMS5003;70010;60.224;24.712;2024-02-21T15:58:00;22;19;
80643;PMS5003;70010;60.224;24.712;2024-02-21T16:00:25;33;20;
80643;PMS5003;70010;60.224;24.712;2024-02-21T16:02:50;29;22;